createdAt,value
2019-05-25T00:01:08.487Z,9.50
2019-05-25T00:03:35.291Z,9.50
2019-05-25T00:06:02.193Z,9.60
2019-05-25T00:08:29.260Z,9.60
2019-05-25T00:10:56.254Z,9.60
2019-05-25T00:13:23.158Z,9.60
2019-05-25T00:15:50.175Z,9.60
2019-05-25T00:18:16.986Z,9.70
2019-05-25T00:20:43.866Z,9.70
2019-05-25T00:23:10.874Z,9.70
2019-05-25T00:25:37.658Z,9.80
2019-05-25T00:28:04.678Z,9.80
2019-05-25T00:30:31.596Z,9.90
2019-05-25T00:32:58.485Z,9.90
2019-05-25T00:35:26.167Z,9.90
2019-05-25T00:37:53.101Z,9.90
2019-05-25T00:40:20.033Z,9.90
2019-05-25T00:42:47.014Z,9.90
2019-05-25T00:45:14.112Z,9.90
2019-05-25T00:47:41.002Z,9.90
2019-05-25T00:50:08.035Z,10.00
2019-05-25T00:52:35.125Z,10.00
2019-05-25T00:55:01.985Z,10.00
2019-05-25T00:57:28.904Z,10.00
2019-05-25T00:59:55.744Z,10.00
2019-05-25T01:02:22.537Z,10.00
2019-05-25T01:04:49.481Z,10.00
2019-05-25T01:07:16.381Z,10.00
2019-05-25T01:09:43.185Z,9.90
2019-05-25T01:12:09.986Z,9.90
2019-05-25T01:14:36.782Z,9.80
2019-05-25T01:17:03.829Z,9.70
2019-05-25T01:19:30.886Z,9.70
2019-05-25T01:21:57.707Z,9.70
2019-05-25T01:24:24.533Z,9.70
2019-05-25T01:26:51.330Z,9.70
2019-05-25T01:29:18.237Z,9.70
2019-05-25T01:31:45.401Z,9.60
2019-05-25T01:34:12.262Z,9.60
2019-05-25T01:36:39.106Z,9.60
2019-05-25T01:39:06.293Z,9.60
2019-05-25T01:41:33.083Z,9.70
2019-05-25T01:43:59.933Z,9.70
2019-05-25T01:46:26.750Z,9.70
2019-05-25T01:48:53.567Z,9.70
2019-05-25T01:51:20.359Z,9.70
2019-05-25T01:53:47.198Z,9.70
2019-05-25T01:56:14.090Z,9.80
2019-05-25T01:58:40.889Z,9.80
2019-05-25T02:01:07.813Z,9.80
2019-05-25T02:03:34.730Z,9.80
2019-05-25T02:06:01.780Z,9.90
2019-05-25T02:08:28.822Z,9.90
2019-05-25T02:10:55.628Z,9.90
2019-05-25T02:13:22.654Z,9.90
2019-05-25T02:15:49.590Z,9.90
2019-05-25T02:18:16.507Z,9.90
2019-05-25T02:20:43.313Z,10.00
2019-05-25T02:23:10.280Z,10.00
2019-05-25T02:25:37.166Z,10.00
2019-05-25T02:28:04.650Z,10.00
2019-05-25T02:30:31.570Z,10.00
2019-05-25T02:32:58.581Z,10.00
2019-05-25T02:35:28.069Z,10.00
2019-05-25T02:37:56.289Z,10.10
2019-05-25T02:40:23.482Z,10.10
2019-05-25T02:42:50.405Z,10.00
2019-05-25T02:45:17.408Z,10.00
2019-05-25T02:47:44.200Z,10.00
2019-05-25T02:50:11.346Z,10.00
2019-05-25T02:52:38.218Z,10.00
2019-05-25T02:55:07.113Z,10.00
2019-05-25T02:57:33.948Z,10.00
2019-05-25T03:00:00.951Z,10.00
2019-05-25T03:02:27.857Z,10.10
2019-05-25T03:04:54.909Z,10.10
2019-05-25T03:07:22.110Z,10.10
2019-05-25T03:09:50.299Z,10.10
2019-05-25T03:12:18.021Z,10.10
2019-05-25T03:14:44.812Z,10.10
2019-05-25T03:17:11.784Z,10.10
2019-05-25T03:19:38.586Z,10.10
2019-05-25T03:22:05.590Z,10.20
2019-05-25T03:24:32.544Z,10.20
2019-05-25T03:26:59.322Z,10.20
2019-05-25T03:29:26.233Z,10.20
2019-05-25T03:31:53.103Z,10.20
2019-05-25T03:34:20.000Z,10.20
2019-05-25T03:36:46.790Z,10.20
2019-05-25T03:39:13.670Z,10.20
2019-05-25T03:41:40.595Z,10.30
2019-05-25T03:44:07.473Z,10.30
2019-05-25T03:46:34.322Z,10.30
2019-05-25T03:49:01.249Z,10.40
2019-05-25T03:51:28.190Z,10.40
2019-05-25T03:53:55.113Z,10.40
2019-05-25T03:56:22.113Z,10.50
2019-05-25T03:58:48.951Z,10.50
2019-05-25T04:01:15.833Z,10.50
2019-05-25T04:03:42.640Z,10.50
2019-05-25T04:06:09.570Z,10.60
2019-05-25T04:08:36.357Z,10.60
2019-05-25T04:11:03.480Z,10.60
2019-05-25T04:13:30.292Z,10.70
2019-05-25T04:16:00.111Z,10.70
2019-05-25T04:18:26.960Z,10.70
2019-05-25T04:20:53.817Z,10.70
2019-05-25T04:23:20.652Z,10.70
2019-05-25T04:25:47.731Z,10.80
2019-05-25T04:28:14.504Z,10.80
2019-05-25T04:30:41.331Z,10.80
2019-05-25T04:33:08.209Z,10.80
2019-05-25T04:35:35.093Z,10.90
2019-05-25T04:38:05.664Z,10.90
2019-05-25T04:40:32.742Z,10.90
2019-05-25T04:42:59.687Z,11.00
2019-05-25T04:45:26.491Z,11.00
2019-05-25T04:47:53.386Z,11.00
2019-05-25T04:50:20.427Z,11.00
2019-05-25T04:52:47.233Z,11.00
2019-05-25T04:55:14.459Z,11.10
2019-05-25T04:57:41.480Z,11.10
2019-05-25T05:00:08.779Z,11.10
2019-05-25T05:02:35.584Z,11.10
2019-05-25T05:05:03.259Z,11.10
2019-05-25T05:07:30.064Z,11.10
2019-05-25T05:10:02.778Z,11.10
2019-05-25T05:12:25.623Z,11.10
2019-05-25T05:14:52.410Z,11.10
2019-05-25T05:17:19.303Z,11.10
2019-05-25T05:19:46.113Z,11.10
2019-05-25T05:22:13.004Z,11.20
2019-05-25T05:24:39.857Z,11.20
2019-05-25T05:27:06.755Z,11.20
2019-05-25T05:29:33.659Z,11.20
2019-05-25T05:32:06.591Z,11.20
2019-05-25T05:34:33.675Z,11.20
2019-05-25T05:37:01.781Z,11.20
2019-05-25T05:39:29.610Z,11.30
2019-05-25T05:41:59.321Z,11.30
2019-05-25T05:44:27.429Z,11.30
2019-05-25T05:46:56.355Z,11.40
2019-05-25T05:49:23.748Z,11.40
2019-05-25T05:51:53.181Z,11.40
2019-05-25T05:54:20.381Z,11.50
2019-05-25T05:56:47.817Z,11.50
2019-05-25T05:59:14.758Z,11.60
2019-05-25T06:01:41.556Z,11.60
2019-05-25T06:04:08.470Z,11.70
2019-05-25T06:06:35.303Z,11.70
2019-05-25T06:09:04.095Z,11.80
2019-05-25T06:11:30.950Z,11.70
2019-05-25T06:13:57.756Z,11.80
2019-05-25T06:16:24.671Z,11.90
2019-05-25T06:18:51.742Z,11.80
2019-05-25T06:21:18.658Z,11.70
2019-05-25T06:23:45.568Z,11.80
2019-05-25T06:26:12.511Z,11.80
2019-05-25T06:28:39.311Z,11.80
2019-05-25T06:31:06.290Z,11.90
2019-05-25T06:33:33.261Z,11.90
2019-05-25T06:36:00.048Z,12.00
2019-05-25T06:38:27.003Z,12.00
2019-05-25T06:40:53.930Z,12.00
2019-05-25T06:43:20.762Z,12.00
2019-05-25T06:45:47.615Z,12.00
2019-05-25T06:48:14.506Z,12.10
2019-05-25T06:50:41.403Z,12.10
2019-05-25T06:53:08.349Z,12.00
2019-05-25T06:55:35.456Z,12.20
2019-05-25T06:58:02.427Z,12.20
2019-05-25T07:00:29.503Z,12.30
2019-05-25T07:02:57.014Z,12.40
2019-05-25T07:05:23.914Z,12.60
2019-05-25T07:07:54.388Z,12.70
2019-05-25T07:10:19.883Z,12.90
2019-05-25T07:12:46.883Z,12.70
2019-05-25T07:15:14.347Z,12.90
2019-05-25T07:17:41.270Z,12.90
2019-05-25T07:20:08.883Z,12.70
2019-05-25T07:22:35.963Z,12.90
2019-05-25T07:25:04.870Z,13.00
2019-05-25T07:27:31.874Z,13.40
2019-05-25T07:29:58.746Z,13.60
2019-05-25T07:32:25.678Z,13.60
2019-05-25T07:34:52.583Z,13.50
2019-05-25T07:37:19.446Z,13.40
2019-05-25T07:39:46.360Z,13.30
2019-05-25T07:42:13.192Z,13.20
2019-05-25T07:44:40.214Z,13.40
2019-05-25T07:47:07.118Z,13.40
2019-05-25T07:49:33.923Z,13.30
2019-05-25T07:52:02.725Z,13.30
2019-05-25T07:54:29.614Z,13.40
2019-05-25T07:56:56.619Z,13.40
2019-05-25T07:59:23.578Z,13.30
2019-05-25T08:01:50.374Z,13.50
2019-05-25T08:04:17.365Z,13.60
2019-05-25T08:06:44.222Z,13.40
2019-05-25T08:09:11.157Z,13.50
2019-05-25T08:11:38.006Z,13.90
2019-05-25T08:14:05.034Z,14.10
2019-05-25T08:16:31.949Z,14.20
2019-05-25T08:18:58.809Z,14.10
2019-05-25T08:21:25.677Z,14.00
2019-05-25T08:23:52.609Z,14.00
2019-05-25T08:26:19.510Z,14.10
2019-05-25T08:28:46.452Z,13.90
2019-05-25T08:31:13.251Z,14.00
2019-05-25T08:33:40.053Z,14.10
2019-05-25T08:36:07.043Z,14.20
2019-05-25T08:38:33.826Z,14.10
2019-05-25T08:41:00.741Z,14.10
2019-05-25T08:43:27.658Z,13.90
2019-05-25T08:45:54.466Z,13.60
2019-05-25T08:48:21.646Z,13.70
2019-05-25T08:50:48.630Z,14.00
2019-05-25T08:53:15.530Z,14.10
2019-05-25T08:55:42.349Z,14.00
2019-05-25T08:58:09.236Z,13.90
2019-05-25T09:00:36.170Z,14.10
2019-05-25T09:03:03.219Z,14.10
2019-05-25T09:05:30.193Z,14.00
2019-05-25T09:07:57.100Z,14.00
2019-05-25T09:10:24.133Z,14.00
2019-05-25T09:12:50.923Z,14.00
2019-05-25T09:15:17.941Z,14.20
2019-05-25T09:17:44.781Z,14.20
2019-05-25T09:20:13.198Z,14.30
2019-05-25T09:22:40.294Z,14.40
2019-05-25T09:25:07.585Z,14.40
2019-05-25T09:27:34.504Z,14.70
2019-05-25T09:30:02.533Z,15.20
2019-05-25T09:32:29.534Z,14.70
2019-05-25T09:34:56.502Z,14.80
2019-05-25T09:37:43.627Z,15.30
2019-05-25T09:40:12.006Z,15.20
2019-05-25T09:42:39.324Z,15.30
2019-05-25T09:45:07.806Z,15.50
2019-05-25T09:47:34.741Z,15.50
2019-05-25T09:50:01.818Z,15.80
2019-05-25T09:52:28.838Z,15.70
2019-05-25T09:54:55.830Z,15.60
2019-05-25T09:57:22.793Z,15.30
2019-05-25T09:59:49.599Z,15.10
2019-05-25T10:02:16.601Z,15.30
2019-05-25T10:04:43.565Z,15.40
2019-05-25T10:07:10.574Z,15.50
2019-05-25T10:09:40.062Z,15.50
2019-05-25T10:12:08.510Z,15.40
2019-05-25T10:14:35.638Z,15.30
2019-05-25T10:17:04.675Z,15.00
2019-05-25T10:19:31.656Z,15.20
2019-05-25T10:21:59.527Z,15.50
2019-05-25T10:24:26.787Z,15.80
2019-05-25T10:26:53.745Z,15.40
2019-05-25T10:29:36.040Z,15.70
2019-05-25T10:31:49.299Z,15.80
2019-05-25T10:34:16.345Z,15.80
2019-05-25T10:36:43.146Z,16.00
2019-05-25T10:39:10.080Z,16.30
2019-05-25T10:41:36.960Z,16.40
2019-05-25T10:44:04.260Z,16.30
2019-05-25T10:46:31.270Z,16.40
2019-05-25T10:48:58.264Z,16.10
2019-05-25T10:51:25.291Z,16.00
2019-05-25T10:53:52.222Z,16.30
2019-05-25T10:56:19.178Z,16.60
2019-05-25T10:58:46.243Z,16.90
2019-05-25T11:01:13.182Z,17.20
2019-05-25T11:03:40.292Z,17.30
2019-05-25T11:06:07.237Z,17.90
2019-05-25T11:08:34.044Z,17.80
2019-05-25T11:11:00.996Z,18.00
2019-05-25T11:13:27.833Z,17.60
2019-05-25T11:15:54.742Z,17.40
2019-05-25T11:18:21.855Z,17.50
2019-05-25T11:20:48.866Z,17.70
2019-05-25T11:23:15.893Z,17.90
2019-05-25T11:25:42.790Z,17.90
2019-05-25T11:28:09.701Z,17.80
2019-05-25T11:30:36.667Z,17.80
2019-05-25T11:33:03.667Z,17.50
2019-05-25T11:35:30.593Z,17.40
2019-05-25T11:37:57.650Z,17.40
2019-05-25T11:40:24.772Z,17.60
2019-05-25T11:42:51.701Z,17.60
2019-05-25T11:45:18.984Z,17.50
2019-05-25T11:47:45.914Z,17.40
2019-05-25T11:50:13.561Z,17.50
2019-05-25T11:52:40.748Z,17.60
2019-05-25T11:55:08.364Z,17.80
2019-05-25T11:57:35.266Z,18.30
2019-05-25T12:00:02.593Z,18.00
2019-05-25T12:02:29.501Z,18.20
2019-05-25T12:04:56.420Z,17.90
2019-05-25T12:07:23.370Z,18.10
2019-05-25T12:09:50.275Z,18.00
2019-05-25T12:12:17.198Z,17.90
2019-05-25T12:14:44.070Z,18.20
2019-05-25T12:17:10.962Z,18.10
2019-05-25T12:19:37.978Z,17.90
2019-05-25T12:22:04.947Z,17.80
2019-05-25T12:24:31.771Z,18.10
2019-05-25T12:26:58.698Z,18.20
2019-05-25T12:29:25.502Z,18.70
2019-05-25T12:32:03.393Z,18.80
2019-05-25T12:34:21.470Z,18.90
2019-05-25T12:36:48.277Z,19.30
2019-05-25T12:39:15.072Z,19.40
2019-05-25T12:41:41.959Z,19.40
2019-05-25T12:44:08.777Z,19.30
2019-05-25T12:46:35.689Z,19.50
2019-05-25T12:49:02.960Z,19.50
2019-05-25T12:51:29.771Z,19.00
2019-05-25T12:53:56.646Z,19.10
2019-05-25T12:56:23.417Z,19.30
2019-05-25T12:58:50.435Z,19.80
2019-05-25T13:01:17.488Z,19.80
2019-05-25T13:03:44.310Z,19.40
2019-05-25T13:06:11.197Z,19.50
2019-05-25T13:08:38.229Z,19.70
2019-05-25T13:11:05.058Z,19.50
2019-05-25T13:13:32.100Z,20.10
2019-05-25T13:15:58.919Z,20.20
2019-05-25T13:18:25.720Z,20.00
2019-05-25T13:20:52.688Z,19.90
2019-05-25T13:23:19.521Z,19.50
2019-05-25T13:25:46.526Z,19.20
2019-05-25T13:28:13.381Z,19.10
2019-05-25T13:30:40.285Z,18.80
2019-05-25T13:33:07.086Z,18.70
2019-05-25T13:35:34.198Z,18.50
2019-05-25T13:38:01.210Z,18.80
2019-05-25T13:40:28.108Z,18.90
2019-05-25T13:42:55.028Z,18.70
2019-05-25T13:45:22.030Z,18.70
2019-05-25T13:47:48.851Z,18.50
2019-05-25T13:50:15.883Z,18.30
2019-05-25T13:52:42.845Z,18.70
2019-05-25T13:55:10.364Z,18.80
2019-05-25T13:57:37.441Z,18.30
2019-05-25T14:00:04.843Z,18.30
2019-05-25T14:02:31.847Z,18.10
2019-05-25T14:04:58.795Z,18.00
2019-05-25T14:07:25.691Z,17.80
2019-05-25T14:09:52.497Z,17.50
2019-05-25T14:12:19.454Z,17.50
2019-05-25T14:14:46.400Z,17.50
2019-05-25T14:17:13.422Z,17.60
2019-05-25T14:19:41.516Z,17.60
2019-05-25T14:22:08.638Z,17.30
2019-05-25T14:24:35.426Z,17.50
2019-05-25T14:27:03.515Z,18.10
2019-05-25T14:29:30.557Z,18.20
2019-05-25T14:31:57.518Z,17.90
2019-05-25T14:34:24.326Z,17.80
2019-05-25T14:36:51.205Z,18.00
2019-05-25T14:39:18.295Z,17.70
2019-05-25T14:41:45.658Z,17.70
2019-05-25T14:44:12.687Z,17.90
2019-05-25T14:46:39.632Z,17.90
2019-05-25T14:49:06.599Z,18.10
2019-05-25T14:51:34.084Z,17.80
2019-05-25T14:54:01.033Z,18.10
2019-05-25T14:56:27.859Z,17.90
2019-05-25T14:58:55.228Z,18.00
2019-05-25T15:01:23.241Z,17.60
2019-05-25T15:03:50.383Z,17.80
2019-05-25T15:06:20.842Z,17.70
2019-05-25T15:08:46.438Z,18.10
2019-05-25T15:11:13.368Z,18.40
2019-05-25T15:13:40.467Z,18.50
2019-05-25T15:16:07.795Z,18.40
2019-05-25T15:18:35.015Z,18.20
2019-05-25T15:21:02.379Z,18.00
2019-05-25T15:23:31.925Z,18.10
2019-05-25T15:25:59.713Z,18.20
2019-05-25T15:28:27.110Z,18.20
2019-05-25T15:30:56.715Z,18.10
2019-05-25T15:33:24.059Z,17.90
2019-05-25T15:35:58.105Z,17.70
2019-05-25T15:38:27.454Z,17.70
2019-05-25T15:40:54.528Z,17.70
2019-05-25T15:43:21.797Z,17.70
2019-05-25T15:45:49.513Z,18.00
2019-05-25T15:48:17.178Z,18.20
2019-05-25T15:50:44.833Z,18.20
2019-05-25T15:53:12.114Z,18.10
2019-05-25T15:55:39.618Z,18.00
2019-05-25T15:58:08.011Z,18.20
2019-05-25T16:00:44.500Z,18.10
2019-05-25T16:03:11.609Z,18.10
2019-05-25T16:05:39.033Z,18.00
2019-05-25T16:08:06.109Z,17.70
2019-05-25T16:10:36.750Z,17.70
2019-05-25T16:13:03.797Z,17.80
2019-05-25T16:15:31.225Z,18.00
2019-05-25T16:17:58.359Z,17.60
2019-05-25T16:20:25.774Z,17.40
2019-05-25T16:22:52.851Z,17.50
2019-05-25T16:25:19.806Z,17.60
2019-05-25T16:27:48.222Z,17.60
2019-05-25T16:30:15.583Z,17.70
2019-05-25T16:35:12.166Z,17.60
2019-05-25T16:37:39.635Z,17.70
2019-05-25T16:40:08.142Z,17.60
2019-05-25T16:42:35.470Z,17.60
2019-05-25T16:45:05.814Z,17.70
2019-05-25T16:47:31.816Z,17.70
2019-05-25T16:49:58.799Z,17.70
2019-05-25T16:52:25.652Z,17.70
2019-05-25T16:54:52.618Z,17.40
2019-05-25T16:57:19.689Z,17.30
2019-05-25T16:59:46.766Z,17.10
2019-05-25T17:02:14.124Z,16.90
2019-05-25T17:04:42.259Z,17.00
2019-05-25T17:07:10.709Z,17.20
2019-05-25T17:09:37.927Z,17.10
2019-05-25T17:12:07.199Z,17.00
2019-05-25T17:14:34.283Z,16.90
2019-05-25T17:17:01.816Z,16.90
2019-05-25T17:19:29.518Z,16.80
2019-05-25T17:21:56.787Z,16.80
2019-05-25T17:24:23.823Z,16.60
2019-05-25T17:26:50.853Z,16.50
2019-05-25T17:29:17.696Z,16.50
2019-05-25T17:31:44.765Z,16.50
2019-05-25T17:34:11.671Z,16.50
2019-05-25T17:36:38.527Z,16.30
2019-05-25T17:39:06.179Z,16.20
2019-05-25T17:41:33.226Z,16.10
2019-05-25T17:44:00.339Z,16.10
2019-05-25T17:46:27.258Z,16.00
2019-05-25T17:48:54.171Z,15.90
2019-05-25T17:51:21.093Z,15.80
2019-05-25T17:53:47.997Z,15.70
2019-05-25T17:56:14.935Z,15.70
2019-05-25T17:58:42.110Z,15.50
2019-05-25T18:01:09.149Z,15.30
2019-05-25T18:03:35.993Z,15.10
2019-05-25T18:06:03.264Z,15.00
2019-05-25T18:08:30.207Z,14.90
2019-05-25T18:10:57.248Z,14.80
2019-05-25T18:13:24.324Z,14.70
2019-05-25T18:15:51.266Z,14.60
2019-05-25T18:18:18.278Z,14.50
2019-05-25T18:20:45.161Z,14.40
2019-05-25T18:23:12.067Z,14.40
2019-05-25T18:25:39.096Z,14.40
2019-05-25T18:28:06.317Z,14.30
2019-05-25T18:30:33.427Z,14.20
2019-05-25T18:33:00.285Z,14.10
2019-05-25T18:35:27.347Z,13.90
2019-05-25T18:37:54.177Z,13.80
2019-05-25T18:40:21.246Z,13.70
2019-05-25T18:42:48.177Z,13.70
2019-05-25T18:45:15.602Z,13.60
2019-05-25T18:47:42.752Z,13.60
2019-05-25T18:50:10.276Z,13.40
2019-05-25T18:52:37.278Z,13.40
2019-05-25T18:55:04.837Z,13.20
2019-05-25T18:57:31.760Z,13.10
2019-05-25T18:59:58.753Z,13.00
2019-05-25T19:02:25.874Z,12.90
2019-05-25T19:04:59.582Z,12.80
2019-05-25T19:07:21.695Z,12.70
2019-05-25T19:09:48.531Z,12.60
2019-05-25T19:12:15.330Z,12.60
2019-05-25T19:14:42.237Z,12.50
2019-05-25T19:17:09.209Z,12.40
2019-05-25T19:19:36.129Z,12.30
2019-05-25T19:22:03.134Z,12.20
2019-05-25T19:24:30.101Z,12.10
2019-05-25T19:26:57.086Z,12.00
2019-05-25T19:29:23.935Z,12.00
2019-05-25T19:31:50.858Z,11.90
2019-05-25T19:34:17.759Z,11.90
2019-05-25T19:36:44.790Z,11.80
2019-05-25T19:39:11.658Z,11.80
2019-05-25T19:41:38.563Z,11.80
2019-05-25T19:44:05.596Z,11.80
2019-05-25T19:46:32.525Z,11.80
2019-05-25T19:48:59.347Z,11.80
2019-05-25T19:51:26.161Z,11.80
2019-05-25T19:53:53.142Z,11.70
2019-05-25T19:56:20.238Z,11.70
2019-05-25T19:58:47.074Z,11.60
2019-05-25T20:01:14.107Z,11.60
2019-05-25T20:03:41.145Z,11.50
2019-05-25T20:06:07.953Z,11.50
2019-05-25T20:08:35.032Z,11.50
2019-05-25T20:11:01.933Z,11.40
2019-05-25T20:13:28.831Z,11.40
2019-05-25T20:15:55.655Z,11.40
2019-05-25T20:18:22.477Z,11.40
2019-05-25T20:20:49.284Z,11.30
2019-05-25T20:23:16.106Z,11.20
2019-05-25T20:25:43.051Z,11.20
2019-05-25T20:28:09.934Z,11.10
2019-05-25T20:30:36.771Z,11.10
2019-05-25T20:33:03.762Z,11.10
2019-05-25T20:35:33.409Z,11.10
2019-05-25T20:37:59.440Z,11.10
2019-05-25T20:40:26.235Z,11.00
2019-05-25T20:42:53.169Z,11.10
2019-05-25T20:45:20.193Z,11.10
2019-05-25T20:47:47.225Z,11.10
2019-05-25T20:50:15.013Z,11.10
2019-05-25T20:52:41.854Z,11.20
2019-05-25T20:55:09.764Z,11.20
2019-05-25T20:57:36.684Z,11.20
2019-05-25T21:00:04.173Z,11.20
2019-05-25T21:02:31.001Z,11.20
2019-05-25T21:04:58.878Z,11.30
2019-05-25T21:07:25.687Z,11.30
2019-05-25T21:09:52.567Z,11.30
2019-05-25T21:12:19.422Z,11.30
2019-05-25T21:14:46.294Z,11.30
2019-05-25T21:17:13.165Z,11.30
2019-05-25T21:19:40.012Z,11.30
2019-05-25T21:22:06.902Z,11.30
2019-05-25T21:24:33.817Z,11.30
2019-05-25T21:27:00.852Z,11.30
2019-05-25T21:29:27.652Z,11.30
2019-05-25T21:31:54.552Z,11.30
2019-05-25T21:34:21.383Z,11.40
2019-05-25T21:36:48.213Z,11.50
2019-05-25T21:39:15.224Z,11.50
2019-05-25T21:41:42.086Z,11.50
2019-05-25T21:44:08.993Z,11.50
2019-05-25T21:46:35.931Z,11.50
2019-05-25T21:49:03.072Z,11.60
2019-05-25T21:51:30.121Z,11.60
2019-05-25T21:53:56.925Z,11.60
2019-05-25T21:56:23.879Z,11.60
2019-05-25T21:58:50.715Z,11.60
2019-05-25T22:01:17.737Z,11.60
2019-05-25T22:03:44.767Z,11.60
2019-05-25T22:06:23.924Z,11.60
2019-05-25T22:08:40.500Z,11.60
2019-05-25T22:11:07.454Z,11.60
2019-05-25T22:13:34.277Z,11.60
2019-05-25T22:16:01.177Z,11.60
2019-05-25T22:18:28.152Z,11.50
2019-05-25T22:20:54.946Z,11.50
2019-05-25T22:23:21.773Z,11.50
2019-05-25T22:25:48.607Z,11.50
2019-05-25T22:28:15.399Z,11.50
2019-05-25T22:30:42.450Z,11.50
2019-05-25T22:33:09.294Z,11.50
2019-05-25T22:35:36.284Z,11.50
2019-05-25T22:38:03.403Z,11.50
2019-05-25T22:40:30.461Z,11.50
2019-05-25T22:42:57.746Z,11.50
2019-05-25T22:45:24.758Z,11.50
2019-05-25T22:47:51.706Z,11.50
2019-05-25T22:50:18.889Z,11.50
2019-05-25T22:52:45.707Z,11.50
2019-05-25T22:55:12.942Z,11.50
2019-05-25T22:57:39.754Z,11.40
2019-05-25T23:00:09.579Z,11.40
2019-05-25T23:02:36.723Z,11.40
2019-05-25T23:05:07.125Z,11.30
2019-05-25T23:07:32.937Z,11.20
2019-05-25T23:09:59.982Z,11.20
2019-05-25T23:12:26.791Z,11.20
2019-05-25T23:14:53.595Z,11.10
2019-05-25T23:17:20.500Z,11.10
2019-05-25T23:19:47.305Z,11.10
2019-05-25T23:22:14.245Z,11.10
2019-05-25T23:24:41.042Z,11.10
2019-05-25T23:27:07.934Z,11.10
2019-05-25T23:29:34.887Z,11.20
2019-05-25T23:32:01.798Z,11.10
2019-05-25T23:34:28.606Z,11.20
2019-05-25T23:36:55.402Z,11.20
2019-05-25T23:39:22.345Z,11.20
2019-05-25T23:41:49.187Z,11.20
2019-05-25T23:44:16.010Z,11.20
2019-05-25T23:46:42.955Z,11.10
2019-05-25T23:49:09.895Z,11.10
2019-05-25T23:51:36.808Z,11.00
2019-05-25T23:54:03.837Z,11.00
2019-05-25T23:56:30.956Z,11.00
2019-05-25T23:58:57.744Z,10.90
